sensor_id;sensor_type;location;lat;lon;timestamp;temperature;humidity
3868;DHT22;1949;48.152;11.528;2023-04-06T00:01:07;12.20;25.90
3868;DHT22;1949;48.152;11.528;2023-04-06T00:03:34;12.20;25.90
3868;DHT22;1949;48.152;11.528;2023-04-06T00:06:00;12.20;25.90
3868;DHT22;1949;48.152;11.528;2023-04-06T00:08:26;12.10;25.90
3868;DHT22;1949;48.152;11.528;2023-04-06T00:10:52;12.20;26.00
3868;DHT22;1949;48.152;11.528;2023-04-06T00:13:17;12.10;26.00
3868;DHT22;1949;48.152;11.528;2023-04-06T00:15:43;12.10;26.00
3868;DHT22;1949;48.152;11.528;2023-04-06T00:18:09;12.10;26.00
3868;DHT22;1949;48.152;11.528;2023-04-06T00:20:35;12.00;26.00
3868;DHT22;1949;48.152;11.528;2023-04-06T00:23:00;12.10;26.10
3868;DHT22;1949;48.152;11.528;2023-04-06T00:25:26;12.00;26.10
3868;DHT22;1949;48.152;11.528;2023-04-06T00:27:52;12.00;26.10
3868;DHT22;1949;48.152;11.528;2023-04-06T00:30:18;12.00;26.10
3868;DHT22;1949;48.152;11.528;2023-04-06T00:32:44;11.90;26.10
3868;DHT22;1949;48.152;11.528;2023-04-06T00:35:09;11.90;26.10
3868;DHT22;1949;48.152;11.528;2023-04-06T00:37:36;11.90;26.20
3868;DHT22;1949;48.152;11.528;2023-04-06T00:40:02;11.90;26.20
3868;DHT22;1949;48.152;11.528;2023-04-06T00:42:28;11.80;26.20
3868;DHT22;1949;48.152;11.528;2023-04-06T00:44:59;11.80;26.10
3868;DHT22;1949;48.152;11.528;2023-04-06T00:47:26;11.70;26.30
3868;DHT22;1949;48.152;11.528;2023-04-06T00:49:53;11.70;26.40
3868;DHT22;1949;48.152;11.528;2023-04-06T00:52:19;11.70;26.40
3868;DHT22;1949;48.152;11.528;2023-04-06T00:54:45;11.70;26.40
3868;DHT22;1949;48.152;11.528;2023-04-06T00:57:12;11.70;26.40
3868;DHT22;1949;48.152;11.528;2023-04-06T00:59:38;11.70;26.40
3868;DHT22;1949;48.152;11.528;2023-04-06T01:02:04;11.70;26.40
3868;DHT22;1949;48.152;11.528;2023-04-06T01:04:30;11.70;26.50
3868;DHT22;1949;48.152;11.528;2023-04-06T01:06:56;11.60;26.30
3868;DHT22;1949;48.152;11.528;2023-04-06T01:09:22;11.60;26.30
3868;DHT22;1949;48.152;11.528;2023-04-06T01:11:48;11.50;26.30
3868;DHT22;1949;48.152;11.528;2023-04-06T01:14:13;11.40;26.30
3868;DHT22;1949;48.152;11.528;2023-04-06T01:16:40;11.30;26.30
3868;DHT22;1949;48.152;11.528;2023-04-06T01:19:10;11.20;26.40
3868;DHT22;1949;48.152;11.528;2023-04-06T01:21:40;11.10;26.40
3868;DHT22;1949;48.152;11.528;2023-04-06T01:24:07;11.00;26.40
3868;DHT22;1949;48.152;11.528;2023-04-06T01:26:34;10.90;26.50
3868;DHT22;1949;48.152;11.528;2023-04-06T01:29:00;10.90;26.60
3868;DHT22;1949;48.152;11.528;2023-04-06T01:31:27;10.90;26.70
3868;DHT22;1949;48.152;11.528;2023-04-06T01:33:54;10.90;26.60
3868;DHT22;1949;48.152;11.528;2023-04-06T01:36:20;11.00;26.80
3868;DHT22;1949;48.152;11.528;2023-04-06T01:38:46;11.00;26.80
3868;DHT22;1949;48.152;11.528;2023-04-06T01:41:12;11.00;26.80
3868;DHT22;1949;48.152;11.528;2023-04-06T01:43:38;11.10;26.80
3868;DHT22;1949;48.152;11.528;2023-04-06T01:46:04;11.10;26.70
3868;DHT22;1949;48.152;11.528;2023-04-06T01:48:30;11.10;26.60
3868;DHT22;1949;48.152;11.528;2023-04-06T01:50:56;11.00;26.60
3868;DHT22;1949;48.152;11.528;2023-04-06T01:53:22;10.90;26.60
3868;DHT22;1949;48.152;11.528;2023-04-06T01:55:48;10.80;26.70
3868;DHT22;1949;48.152;11.528;2023-04-06T01:58:14;10.80;26.60
3868;DHT22;1949;48.152;11.528;2023-04-06T02:00:40;10.70;26.60
3868;DHT22;1949;48.152;11.528;2023-04-06T02:03:06;10.60;26.70
3868;DHT22;1949;48.152;11.528;2023-04-06T02:05:32;10.60;26.80
3868;DHT22;1949;48.152;11.528;2023-04-06T02:08:06;10.50;26.60
3868;DHT22;1949;48.152;11.528;2023-04-06T02:10:34;10.40;26.70
3868;DHT22;1949;48.152;11.528;2023-04-06T02:12:59;10.40;26.80
3868;DHT22;1949;48.152;11.528;2023-04-06T02:15:27;10.30;26.80
3868;DHT22;1949;48.152;11.528;2023-04-06T02:17:54;10.20;26.80
3868;DHT22;1949;48.152;11.528;2023-04-06T02:20:20;10.10;26.80
3868;DHT22;1949;48.152;11.528;2023-04-06T02:22:46;10.10;26.90
3868;DHT22;1949;48.152;11.528;2023-04-06T02:25:11;10.10;27.00
3868;DHT22;1949;48.152;11.528;2023-04-06T02:27:37;10.10;27.00
3868;DHT22;1949;48.152;11.528;2023-04-06T02:30:04;10.00;26.90
3868;DHT22;1949;48.152;11.528;2023-04-06T02:32:30;10.00;26.90
3868;DHT22;1949;48.152;11.528;2023-04-06T02:34:56;9.90;27.70
3868;DHT22;1949;48.152;11.528;2023-04-06T02:37:21;9.90;27.80
3868;DHT22;1949;48.152;11.528;2023-04-06T02:39:50;9.90;27.80
3868;DHT22;1949;48.152;11.528;2023-04-06T02:42:17;10.00;27.30
3868;DHT22;1949;48.152;11.528;2023-04-06T02:44:43;10.00;27.30
3868;DHT22;1949;48.152;11.528;2023-04-06T02:47:08;10.00;27.20
3868;DHT22;1949;48.152;11.528;2023-04-06T02:49:35;10.00;27.00
3868;DHT22;1949;48.152;11.528;2023-04-06T02:52:00;9.90;27.60
3868;DHT22;1949;48.152;11.528;2023-04-06T02:54:26;9.80;27.70
3868;DHT22;1949;48.152;11.528;2023-04-06T02:56:52;9.70;27.80
3868;DHT22;1949;48.152;11.528;2023-04-06T02:59:17;9.70;28.00
3868;DHT22;1949;48.152;11.528;2023-04-06T03:01:43;9.60;28.00
3868;DHT22;1949;48.152;11.528;2023-04-06T03:04:09;9.60;27.90
3868;DHT22;1949;48.152;11.528;2023-04-06T03:06:35;9.50;28.10
3868;DHT22;1949;48.152;11.528;2023-04-06T03:09:00;9.50;28.20
3868;DHT22;1949;48.152;11.528;2023-04-06T03:11:26;9.60;28.30
3868;DHT22;1949;48.152;11.528;2023-04-06T03:13:52;9.70;28.30
3868;DHT22;1949;48.152;11.528;2023-04-06T03:16:18;9.80;28.40
3868;DHT22;1949;48.152;11.528;2023-04-06T03:18:44;9.90;28.40
3868;DHT22;1949;48.152;11.528;2023-04-06T03:21:13;10.00;27.60
3868;DHT22;1949;48.152;11.528;2023-04-06T03:23:42;10.00;27.50
3868;DHT22;1949;48.152;11.528;2023-04-06T03:26:08;10.10;27.50
3868;DHT22;1949;48.152;11.528;2023-04-06T03:28:34;10.10;27.60
3868;DHT22;1949;48.152;11.528;2023-04-06T03:31:00;10.20;27.60
3868;DHT22;1949;48.152;11.528;2023-04-06T03:33:25;10.20;27.60
3868;DHT22;1949;48.152;11.528;2023-04-06T03:35:55;10.20;27.50
3868;DHT22;1949;48.152;11.528;2023-04-06T03:38:21;10.30;27.60
3868;DHT22;1949;48.152;11.528;2023-04-06T03:40:47;10.30;27.60
3868;DHT22;1949;48.152;11.528;2023-04-06T03:43:13;10.30;27.60
3868;DHT22;1949;48.152;11.528;2023-04-06T03:45:38;10.30;27.60
3868;DHT22;1949;48.152;11.528;2023-04-06T03:48:05;10.30;27.40
3868;DHT22;1949;48.152;11.528;2023-04-06T03:50:30;10.30;27.30
3868;DHT22;1949;48.152;11.528;2023-04-06T03:52:56;10.10;27.30
3868;DHT22;1949;48.152;11.528;2023-04-06T03:55:22;10.00;27.40
3868;DHT22;1949;48.152;11.528;2023-04-06T03:57:48;9.90;28.30
3868;DHT22;1949;48.152;11.528;2023-04-06T04:00:14;9.90;28.30
3868;DHT22;1949;48.152;11.528;2023-04-06T04:02:40;9.80;28.20
3868;DHT22;1949;48.152;11.528;2023-04-06T04:05:06;9.70;28.40
3868;DHT22;1949;48.152;11.528;2023-04-06T04:07:32;9.70;28.40
3868;DHT22;1949;48.152;11.528;2023-04-06T04:09:57;9.70;28.30
3868;DHT22;1949;48.152;11.528;2023-04-06T04:12:23;9.60;28.40
3868;DHT22;1949;48.152;11.528;2023-04-06T04:14:49;9.50;28.30
3868;DHT22;1949;48.152;11.528;2023-04-06T04:17:15;9.50;28.50
3868;DHT22;1949;48.152;11.528;2023-04-06T04:19:40;9.40;28.50
3868;DHT22;1949;48.152;11.528;2023-04-06T04:22:06;9.40;28.50
3868;DHT22;1949;48.152;11.528;2023-04-06T04:24:32;9.30;28.50
3868;DHT22;1949;48.152;11.528;2023-04-06T04:26:59;9.20;28.50
3868;DHT22;1949;48.152;11.528;2023-04-06T04:29:27;9.10;28.50
3868;DHT22;1949;48.152;11.528;2023-04-06T04:31:53;9.10;28.70
3868;DHT22;1949;48.152;11.528;2023-04-06T04:34:18;9.00;28.60
3868;DHT22;1949;48.152;11.528;2023-04-06T04:36:51;8.90;28.70
3868;DHT22;1949;48.152;11.528;2023-04-06T04:39:16;9.00;28.90
3868;DHT22;1949;48.152;11.528;2023-04-06T04:41:42;9.00;29.00
3868;DHT22;1949;48.152;11.528;2023-04-06T04:44:08;9.10;29.10
3868;DHT22;1949;48.152;11.528;2023-04-06T04:46:33;9.10;29.10
3868;DHT22;1949;48.152;11.528;2023-04-06T04:48:59;9.20;29.10
3868;DHT22;1949;48.152;11.528;2023-04-06T04:51:25;9.30;29.10
3868;DHT22;1949;48.152;11.528;2023-04-06T04:53:51;9.40;29.10
3868;DHT22;1949;48.152;11.528;2023-04-06T04:56:17;9.50;29.10
3868;DHT22;1949;48.152;11.528;2023-04-06T04:58:43;9.60;29.10
3868;DHT22;1949;48.152;11.528;2023-04-06T05:01:08;9.60;29.00
3868;DHT22;1949;48.152;11.528;2023-04-06T05:03:36;9.70;29.10
3868;DHT22;1949;48.152;11.528;2023-04-06T05:06:04;9.80;29.50
3868;DHT22;1949;48.152;11.528;2023-04-06T05:08:30;9.80;29.00
3868;DHT22;1949;48.152;11.528;2023-04-06T05:10:56;9.90;29.00
3868;DHT22;1949;48.152;11.528;2023-04-06T05:13:22;9.90;29.00
3868;DHT22;1949;48.152;11.528;2023-04-06T05:15:49;9.90;28.90
3868;DHT22;1949;48.152;11.528;2023-04-06T05:18:15;9.90;29.00
3868;DHT22;1949;48.152;11.528;2023-04-06T05:20:41;10.00;28.30
3868;DHT22;1949;48.152;11.528;2023-04-06T05:23:07;10.00;28.40
3868;DHT22;1949;48.152;11.528;2023-04-06T05:25:33;10.00;28.40
3868;DHT22;1949;48.152;11.528;2023-04-06T05:27:59;10.10;28.50
3868;DHT22;1949;48.152;11.528;2023-04-06T05:30:25;10.10;28.40
3868;DHT22;1949;48.152;11.528;2023-04-06T05:32:51;10.20;28.50
3868;DHT22;1949;48.152;11.528;2023-04-06T05:35:17;10.20;28.40
3868;DHT22;1949;48.152;11.528;2023-04-06T05:37:44;10.20;28.40
3868;DHT22;1949;48.152;11.528;2023-04-06T05:40:11;10.20;28.40
3868;DHT22;1949;48.152;11.528;2023-04-06T05:42:37;10.30;28.40
3868;DHT22;1949;48.152;11.528;2023-04-06T05:45:07;10.20;28.50
3868;DHT22;1949;48.152;11.528;2023-04-06T05:47:33;10.30;28.60
3868;DHT22;1949;48.152;11.528;2023-04-06T05:49:59;10.30;28.60
3868;DHT22;1949;48.152;11.528;2023-04-06T05:52:25;10.30;28.60
3868;DHT22;1949;48.152;11.528;2023-04-06T05:54:51;10.30;28.60
3868;DHT22;1949;48.152;11.528;2023-04-06T05:57:17;10.40;28.60
3868;DHT22;1949;48.152;11.528;2023-04-06T05:59:43;10.40;28.60
3868;DHT22;1949;48.152;11.528;2023-04-06T06:02:09;10.40;28.60
3868;DHT22;1949;48.152;11.528;2023-04-06T06:04:35;10.40;28.50
3868;DHT22;1949;48.152;11.528;2023-04-06T06:07:00;10.30;28.40
3868;DHT22;1949;48.152;11.528;2023-04-06T06:09:26;10.30;28.50
3868;DHT22;1949;48.152;11.528;2023-04-06T06:11:53;10.30;28.60
3868;DHT22;1949;48.152;11.528;2023-04-06T06:14:19;10.30;28.70
3868;DHT22;1949;48.152;11.528;2023-04-06T06:16:45;10.30;28.70
3868;DHT22;1949;48.152;11.528;2023-04-06T06:19:11;10.30;28.70
3868;DHT22;1949;48.152;11.528;2023-04-06T06:21:37;10.40;28.70
3868;DHT22;1949;48.152;11.528;2023-04-06T06:24:02;10.40;28.70
3868;DHT22;1949;48.152;11.528;2023-04-06T06:26:28;10.50;28.80
3868;DHT22;1949;48.152;11.528;2023-04-06T06:28:54;10.50;28.70
3868;DHT22;1949;48.152;11.528;2023-04-06T06:31:20;10.60;28.80
3868;DHT22;1949;48.152;11.528;2023-04-06T06:33:48;10.70;28.70
3868;DHT22;1949;48.152;11.528;2023-04-06T06:36:17;10.70;28.60
3868;DHT22;1949;48.152;11.528;2023-04-06T06:38:43;10.70;28.60
3868;DHT22;1949;48.152;11.528;2023-04-06T06:41:10;10.70;28.70
3868;DHT22;1949;48.152;11.528;2023-04-06T06:43:35;10.70;28.70
3868;DHT22;1949;48.152;11.528;2023-04-06T06:46:03;10.80;28.70
3868;DHT22;1949;48.152;11.528;2023-04-06T06:48:29;10.80;28.70
3868;DHT22;1949;48.152;11.528;2023-04-06T06:50:55;10.80;28.80
3868;DHT22;1949;48.152;11.528;2023-04-06T06:53:21;10.90;28.80
3868;DHT22;1949;48.152;11.528;2023-04-06T06:55:47;10.90;28.70
3868;DHT22;1949;48.152;11.528;2023-04-06T06:58:14;11.00;28.80
3868;DHT22;1949;48.152;11.528;2023-04-06T07:00:40;11.00;28.80
3868;DHT22;1949;48.152;11.528;2023-04-06T07:03:06;11.10;28.80
3868;DHT22;1949;48.152;11.528;2023-04-06T07:05:32;11.20;28.80
3868;DHT22;1949;48.152;11.528;2023-04-06T07:07:58;11.30;28.80
3868;DHT22;1949;48.152;11.528;2023-04-06T07:10:24;11.40;28.80
3868;DHT22;1949;48.152;11.528;2023-04-06T07:12:50;11.40;28.80
3868;DHT22;1949;48.152;11.528;2023-04-06T07:15:16;11.50;28.80
3868;DHT22;1949;48.152;11.528;2023-04-06T07:17:42;11.50;28.70
3868;DHT22;1949;48.152;11.528;2023-04-06T07:20:11;11.50;28.60
3868;DHT22;1949;48.152;11.528;2023-04-06T07:22:38;11.50;28.60
3868;DHT22;1949;48.152;11.528;2023-04-06T07:25:04;11.50;28.60
3868;DHT22;1949;48.152;11.528;2023-04-06T07:27:30;11.50;28.40
3868;DHT22;1949;48.152;11.528;2023-04-06T07:29:56;11.50;28.40
3868;DHT22;1949;48.152;11.528;2023-04-06T07:32:21;11.40;28.50
3868;DHT22;1949;48.152;11.528;2023-04-06T07:34:47;11.40;28.50
3868;DHT22;1949;48.152;11.528;2023-04-06T07:37:13;11.50;28.60
3868;DHT22;1949;48.152;11.528;2023-04-06T07:39:39;11.50;28.60
3868;DHT22;1949;48.152;11.528;2023-04-06T07:42:05;11.50;28.50
3868;DHT22;1949;48.152;11.528;2023-04-06T07:44:31;11.50;28.50
3868;DHT22;1949;48.152;11.528;2023-04-06T07:46:57;11.60;28.60
3868;DHT22;1949;48.152;11.528;2023-04-06T07:49:23;11.60;28.60
3868;DHT22;1949;48.152;11.528;2023-04-06T07:51:49;11.60;28.60
3868;DHT22;1949;48.152;11.528;2023-04-06T07:54:14;11.70;28.50
3868;DHT22;1949;48.152;11.528;2023-04-06T07:56:40;11.70;28.50
3868;DHT22;1949;48.152;11.528;2023-04-06T07:59:06;11.80;28.50
3868;DHT22;1949;48.152;11.528;2023-04-06T08:01:31;11.80;28.30
3868;DHT22;1949;48.152;11.528;2023-04-06T08:03:58;11.70;28.10
3868;DHT22;1949;48.152;11.528;2023-04-06T08:06:26;11.60;28.20
3868;DHT22;1949;48.152;11.528;2023-04-06T08:08:52;11.60;28.30
3868;DHT22;1949;48.152;11.528;2023-04-06T08:11:18;11.60;28.40
3868;DHT22;1949;48.152;11.528;2023-04-06T08:13:43;11.70;28.40
3868;DHT22;1949;48.152;11.528;2023-04-06T08:16:09;11.70;28.40
3868;DHT22;1949;48.152;11.528;2023-04-06T08:18:35;11.80;28.40
3868;DHT22;1949;48.152;11.528;2023-04-06T08:21:00;11.80;28.40
3868;DHT22;1949;48.152;11.528;2023-04-06T08:23:26;11.90;28.50
3868;DHT22;1949;48.152;11.528;2023-04-06T08:25:52;12.00;28.30
3868;DHT22;1949;48.152;11.528;2023-04-06T08:28:20;12.00;28.40
3868;DHT22;1949;48.152;11.528;2023-04-06T08:30:47;12.10;28.40
3868;DHT22;1949;48.152;11.528;2023-04-06T08:33:19;12.10;28.30
3868;DHT22;1949;48.152;11.528;2023-04-06T08:35:44;12.10;28.20
3868;DHT22;1949;48.152;11.528;2023-04-06T08:38:10;12.20;28.00
3868;DHT22;1949;48.152;11.528;2023-04-06T08:40:39;12.10;27.90
3868;DHT22;1949;48.152;11.528;2023-04-06T08:43:12;12.00;27.90
3868;DHT22;1949;48.152;11.528;2023-04-06T08:45:40;12.00;28.00
3868;DHT22;1949;48.152;11.528;2023-04-06T08:48:06;11.90;28.00
3868;DHT22;1949;48.152;11.528;2023-04-06T08:50:33;11.90;28.10
3868;DHT22;1949;48.152;11.528;2023-04-06T08:52:59;12.00;28.20
3868;DHT22;1949;48.152;11.528;2023-04-06T08:55:26;12.10;28.20
3868;DHT22;1949;48.152;11.528;2023-04-06T08:57:52;12.20;28.10
3868;DHT22;1949;48.152;11.528;2023-04-06T09:00:21;12.20;28.10
3868;DHT22;1949;48.152;11.528;2023-04-06T09:02:47;12.30;28.10
3868;DHT22;1949;48.152;11.528;2023-04-06T09:05:15;12.30;28.10
3868;DHT22;1949;48.152;11.528;2023-04-06T09:07:41;12.40;28.20
3868;DHT22;1949;48.152;11.528;2023-04-06T09:10:08;12.40;28.20
3868;DHT22;1949;48.152;11.528;2023-04-06T09:12:34;12.50;28.30
3868;DHT22;1949;48.152;11.528;2023-04-06T09:15:01;12.50;28.60
3868;DHT22;1949;48.152;11.528;2023-04-06T09:17:31;12.60;28.20
3868;DHT22;1949;48.152;11.528;2023-04-06T09:20:02;12.60;28.10
3868;DHT22;1949;48.152;11.528;2023-04-06T09:22:38;12.70;28.10
3868;DHT22;1949;48.152;11.528;2023-04-06T09:25:05;12.70;28.10
3868;DHT22;1949;48.152;11.528;2023-04-06T09:27:36;12.70;28.10
3868;DHT22;1949;48.152;11.528;2023-04-06T09:30:10;12.70;28.00
3868;DHT22;1949;48.152;11.528;2023-04-06T09:32:48;12.70;28.00
3868;DHT22;1949;48.152;11.528;2023-04-06T09:35:15;12.80;28.10
3868;DHT22;1949;48.152;11.528;2023-04-06T09:37:44;12.80;28.10
3868;DHT22;1949;48.152;11.528;2023-04-06T09:40:11;12.90;28.00
3868;DHT22;1949;48.152;11.528;2023-04-06T09:42:37;12.90;28.00
3868;DHT22;1949;48.152;11.528;2023-04-06T09:45:03;13.00;28.00
3868;DHT22;1949;48.152;11.528;2023-04-06T09:47:36;12.90;27.80
3868;DHT22;1949;48.152;11.528;2023-04-06T09:50:02;13.00;27.60
3868;DHT22;1949;48.152;11.528;2023-04-06T09:52:32;13.00;27.60
3868;DHT22;1949;48.152;11.528;2023-04-06T09:55:04;13.00;27.70
3868;DHT22;1949;48.152;11.528;2023-04-06T09:57:45;13.00;27.50
3868;DHT22;1949;48.152;11.528;2023-04-06T10:00:14;13.00;27.70
3868;DHT22;1949;48.152;11.528;2023-04-06T10:08:06;12.90;27.50
3868;DHT22;1949;48.152;11.528;2023-04-06T10:10:32;12.90;27.50
3868;DHT22;1949;48.152;11.528;2023-04-06T10:12:58;12.80;27.30
3868;DHT22;1949;48.152;11.528;2023-04-06T10:15:27;12.70;27.30
3868;DHT22;1949;48.152;11.528;2023-04-06T10:17:54;12.70;27.40
3868;DHT22;1949;48.152;11.528;2023-04-06T10:20:36;12.70;27.60
3868;DHT22;1949;48.152;11.528;2023-04-06T10:23:12;12.70;27.40
3868;DHT22;1949;48.152;11.528;2023-04-06T10:25:55;12.80;27.40
3868;DHT22;1949;48.152;11.528;2023-04-06T10:28:22;12.80;27.40
3868;DHT22;1949;48.152;11.528;2023-04-06T10:30:48;12.80;27.50
3868;DHT22;1949;48.152;11.528;2023-04-06T10:33:18;12.90;27.60
3868;DHT22;1949;48.152;11.528;2023-04-06T10:35:44;12.90;27.40
3868;DHT22;1949;48.152;11.528;2023-04-06T10:38:10;12.90;27.30
3868;DHT22;1949;48.152;11.528;2023-04-06T10:40:40;13.00;27.40
3868;DHT22;1949;48.152;11.528;2023-04-06T10:43:18;12.90;27.10
3868;DHT22;1949;48.152;11.528;2023-04-06T10:45:45;12.80;27.00
3868;DHT22;1949;48.152;11.528;2023-04-06T10:48:19;12.70;27.30
3868;DHT22;1949;48.152;11.528;2023-04-06T10:50:48;12.80;27.40
3868;DHT22;1949;48.152;11.528;2023-04-06T10:53:28;12.80;27.40
3868;DHT22;1949;48.152;11.528;2023-04-06T10:55:57;12.90;27.30
3868;DHT22;1949;48.152;11.528;2023-04-06T10:58:27;12.90;27.30
3868;DHT22;1949;48.152;11.528;2023-04-06T11:00:54;13.00;27.40
3868;DHT22;1949;48.152;11.528;2023-04-06T11:03:20;13.10;27.50
3868;DHT22;1949;48.152;11.528;2023-04-06T11:05:48;13.20;27.50
3868;DHT22;1949;48.152;11.528;2023-04-06T11:08:33;13.20;27.30
3868;DHT22;1949;48.152;11.528;2023-04-06T11:11:10;13.30;27.40
3868;DHT22;1949;48.152;11.528;2023-04-06T11:13:51;13.30;27.30
3868;DHT22;1949;48.152;11.528;2023-04-06T11:18:54;13.40;27.20
3868;DHT22;1949;48.152;11.528;2023-04-06T11:24:20;13.30;27.30
3868;DHT22;1949;48.152;11.528;2023-04-06T11:26:48;13.40;27.40
3868;DHT22;1949;48.152;11.528;2023-04-06T11:29:20;13.40;27.30
3868;DHT22;1949;48.152;11.528;2023-04-06T11:31:52;13.50;27.20
3868;DHT22;1949;48.152;11.528;2023-04-06T11:34:22;13.50;27.20
3868;DHT22;1949;48.152;11.528;2023-04-06T11:37:03;13.50;27.00
3868;DHT22;1949;48.152;11.528;2023-04-06T11:39:38;13.50;27.10
3868;DHT22;1949;48.152;11.528;2023-04-06T11:42:04;13.50;27.10
3868;DHT22;1949;48.152;11.528;2023-04-06T11:44:45;13.50;27.30
3868;DHT22;1949;48.152;11.528;2023-04-06T11:47:15;13.60;27.40
3868;DHT22;1949;48.152;11.528;2023-04-06T11:49:43;13.80;27.40
3868;DHT22;1949;48.152;11.528;2023-04-06T11:52:24;13.90;27.40
3868;DHT22;1949;48.152;11.528;2023-04-06T11:54:52;14.00;27.30
3868;DHT22;1949;48.152;11.528;2023-04-06T11:57:19;14.10;27.20
3868;DHT22;1949;48.152;11.528;2023-04-06T11:59:46;14.20;27.20
3868;DHT22;1949;48.152;11.528;2023-04-06T12:02:11;14.30;27.10
3868;DHT22;1949;48.152;11.528;2023-04-06T12:04:38;14.40;27.10
3868;DHT22;1949;48.152;11.528;2023-04-06T12:07:05;14.50;27.10
3868;DHT22;1949;48.152;11.528;2023-04-06T12:09:31;14.60;27.10
3868;DHT22;1949;48.152;11.528;2023-04-06T12:11:57;14.80;26.90
3868;DHT22;1949;48.152;11.528;2023-04-06T12:14:25;14.90;27.00
3868;DHT22;1949;48.152;11.528;2023-04-06T12:16:52;15.00;26.80
3868;DHT22;1949;48.152;11.528;2023-04-06T12:19:17;15.20;26.70
3868;DHT22;1949;48.152;11.528;2023-04-06T12:21:43;15.20;26.50
3868;DHT22;1949;48.152;11.528;2023-04-06T12:24:11;15.30;26.60
3868;DHT22;1949;48.152;11.528;2023-04-06T12:26:37;15.40;26.50
3868;DHT22;1949;48.152;11.528;2023-04-06T12:29:03;15.50;26.40
3868;DHT22;1949;48.152;11.528;2023-04-06T12:31:35;15.50;26.40
3868;DHT22;1949;48.152;11.528;2023-04-06T12:34:02;15.60;26.50
3868;DHT22;1949;48.152;11.528;2023-04-06T12:36:28;15.70;26.50
3868;DHT22;1949;48.152;11.528;2023-04-06T12:38:55;15.70;26.40
3868;DHT22;1949;48.152;11.528;2023-04-06T12:41:21;15.90;26.80
3868;DHT22;1949;48.152;11.528;2023-04-06T12:43:48;16.10;26.90
3868;DHT22;1949;48.152;11.528;2023-04-06T12:46:15;16.20;26.70
3868;DHT22;1949;48.152;11.528;2023-04-06T12:48:42;16.30;26.40
3868;DHT22;1949;48.152;11.528;2023-04-06T12:51:07;16.40;26.60
3868;DHT22;1949;48.152;11.528;2023-04-06T12:53:34;16.40;26.20
3868;DHT22;1949;48.152;11.528;2023-04-06T12:56:01;16.50;26.10
3868;DHT22;1949;48.152;11.528;2023-04-06T12:58:27;16.40;25.90
3868;DHT22;1949;48.152;11.528;2023-04-06T13:00:57;16.40;26.00
3868;DHT22;1949;48.152;11.528;2023-04-06T13:03:23;16.50;26.20
3868;DHT22;1949;48.152;11.528;2023-04-06T13:05:52;16.60;26.40
3868;DHT22;1949;48.152;11.528;2023-04-06T13:08:19;16.80;26.10
3868;DHT22;1949;48.152;11.528;2023-04-06T13:10:48;16.90;25.80
3868;DHT22;1949;48.152;11.528;2023-04-06T13:13:15;16.70;25.60
3868;DHT22;1949;48.152;11.528;2023-04-06T13:15:41;16.60;25.60
3868;DHT22;1949;48.152;11.528;2023-04-06T13:18:07;16.40;25.50
3868;DHT22;1949;48.152;11.528;2023-04-06T13:20:33;16.30;25.60
3868;DHT22;1949;48.152;11.528;2023-04-06T13:22:59;16.30;25.70
3868;DHT22;1949;48.152;11.528;2023-04-06T13:25:25;16.50;25.80
3868;DHT22;1949;48.152;11.528;2023-04-06T13:27:51;16.70;25.80
3868;DHT22;1949;48.152;11.528;2023-04-06T13:30:17;16.90;25.90
3868;DHT22;1949;48.152;11.528;2023-04-06T13:32:43;17.20;26.00
3868;DHT22;1949;48.152;11.528;2023-04-06T13:35:09;17.40;26.00
3868;DHT22;1949;48.152;11.528;2023-04-06T13:37:36;17.60;25.70
3868;DHT22;1949;48.152;11.528;2023-04-06T13:40:03;17.60;25.50
3868;DHT22;1949;48.152;11.528;2023-04-06T13:42:30;17.40;25.30
3868;DHT22;1949;48.152;11.528;2023-04-06T13:44:57;17.50;25.40
3868;DHT22;1949;48.152;11.528;2023-04-06T13:47:23;17.60;25.70
3868;DHT22;1949;48.152;11.528;2023-04-06T13:49:50;18.00;25.70
3868;DHT22;1949;48.152;11.528;2023-04-06T13:52:18;18.20;25.40
3868;DHT22;1949;48.152;11.528;2023-04-06T13:54:44;18.30;25.30
3868;DHT22;1949;48.152;11.528;2023-04-06T13:57:10;18.50;25.40
3868;DHT22;1949;48.152;11.528;2023-04-06T13:59:38;18.60;25.20
3868;DHT22;1949;48.152;11.528;2023-04-06T14:02:08;18.60;25.10
3868;DHT22;1949;48.152;11.528;2023-04-06T14:04:34;18.70;25.10
3868;DHT22;1949;48.152;11.528;2023-04-06T14:07:01;18.80;25.10
3868;DHT22;1949;48.152;11.528;2023-04-06T14:09:27;18.80;24.90
3868;DHT22;1949;48.152;11.528;2023-04-06T14:11:54;18.60;24.70
3868;DHT22;1949;48.152;11.528;2023-04-06T14:14:20;18.60;24.80
3868;DHT22;1949;48.152;11.528;2023-04-06T14:16:46;18.60;25.00
3868;DHT22;1949;48.152;11.528;2023-04-06T14:19:14;18.80;25.10
3868;DHT22;1949;48.152;11.528;2023-04-06T14:21:44;18.90;24.90
3868;DHT22;1949;48.152;11.528;2023-04-06T14:24:10;19.00;24.80
3868;DHT22;1949;48.152;11.528;2023-04-06T14:26:37;18.90;24.40
3868;DHT22;1949;48.152;11.528;2023-04-06T14:29:04;18.60;24.30
3868;DHT22;1949;48.152;11.528;2023-04-06T14:31:30;18.30;24.40
3868;DHT22;1949;48.152;11.528;2023-04-06T14:33:56;18.30;24.60
3868;DHT22;1949;48.152;11.528;2023-04-06T14:36:22;18.30;24.60
3868;DHT22;1949;48.152;11.528;2023-04-06T14:38:50;18.30;24.60
3868;DHT22;1949;48.152;11.528;2023-04-06T14:41:18;18.10;24.20
3868;DHT22;1949;48.152;11.528;2023-04-06T14:43:46;18.00;24.40
3868;DHT22;1949;48.152;11.528;2023-04-06T14:46:13;18.10;24.90
3868;DHT22;1949;48.152;11.528;2023-04-06T14:48:41;18.40;25.20
3868;DHT22;1949;48.152;11.528;2023-04-06T14:51:07;18.80;25.10
3868;DHT22;1949;48.152;11.528;2023-04-06T14:53:34;19.20;25.00
3868;DHT22;1949;48.152;11.528;2023-04-06T14:55:59;19.60;24.80
3868;DHT22;1949;48.152;11.528;2023-04-06T14:58:25;19.90;24.70
3868;DHT22;1949;48.152;11.528;2023-04-06T15:00:58;20.20;24.60
3868;DHT22;1949;48.152;11.528;2023-04-06T15:03:28;20.30;24.00
3868;DHT22;1949;48.152;11.528;2023-04-06T15:05:55;20.30;23.90
3868;DHT22;1949;48.152;11.528;2023-04-06T15:08:24;20.40;24.10
3868;DHT22;1949;48.152;11.528;2023-04-06T15:10:51;20.60;23.80
3868;DHT22;1949;48.152;11.528;2023-04-06T15:13:20;20.60;23.70
3868;DHT22;1949;48.152;11.528;2023-04-06T15:15:46;20.60;23.60
3868;DHT22;1949;48.152;11.528;2023-04-06T15:18:12;20.50;23.60
3868;DHT22;1949;48.152;11.528;2023-04-06T15:20:37;20.50;23.50
3868;DHT22;1949;48.152;11.528;2023-04-06T15:23:04;20.60;23.60
3868;DHT22;1949;48.152;11.528;2023-04-06T15:25:31;20.40;23.10
3868;DHT22;1949;48.152;11.528;2023-04-06T15:27:57;20.20;23.00
3868;DHT22;1949;48.152;11.528;2023-04-06T15:30:23;20.00;23.10
3868;DHT22;1949;48.152;11.528;2023-04-06T15:32:56;19.90;23.10
3868;DHT22;1949;48.152;11.528;2023-04-06T15:35:23;19.90;23.00
3868;DHT22;1949;48.152;11.528;2023-04-06T15:37:49;19.80;23.10
3868;DHT22;1949;48.152;11.528;2023-04-06T15:40:15;19.80;22.90
3868;DHT22;1949;48.152;11.528;2023-04-06T15:42:42;19.70;23.00
3868;DHT22;1949;48.152;11.528;2023-04-06T15:45:10;19.60;22.90
3868;DHT22;1949;48.152;11.528;2023-04-06T15:47:41;19.50;22.80
3868;DHT22;1949;48.152;11.528;2023-04-06T15:50:07;19.30;22.70
3868;DHT22;1949;48.152;11.528;2023-04-06T15:52:34;19.00;22.70
3868;DHT22;1949;48.152;11.528;2023-04-06T15:55:02;18.80;22.80
3868;DHT22;1949;48.152;11.528;2023-04-06T15:57:28;18.60;22.80